sensor_id;sensor_type;location;lat;lon;timestamp;P1;durP1;ratioP1;P2;durP2;ratioP2
27957;SDS011;15295;42.658;23.374;2022-07-22T00:01:44;11.48;;;4.60;;
27957;SDS011;15295;42.658;23.374;2022-07-22T00:04:11;9.85;;;5.18;;
27957;SDS011;15295;42.658;23.374;2022-07-22T00:06:36;9.00;;;4.57;;
27957;SDS011;15295;42.658;23.374;2022-07-22T00:09:02;7.32;;;4.32;;
27957;SDS011;15295;42.658;23.374;2022-07-22T00:11:30;6.78;;;4.57;;
27957;SDS011;15295;42.658;23.374;2022-07-22T00:13:55;7.50;;;4.63;;
27957;SDS011;15295;42.658;23.374;2022-07-22T00:16:21;7.75;;;4.43;;
27957;SDS011;15295;42.658;23.374;2022-07-22T00:18:46;10.82;;;4.45;;
27957;SDS011;15295;42.658;23.374;2022-07-22T00:23:48;7.90;;;4.50;;
27957;SDS011;15295;42.658;23.374;2022-07-22T00:26:13;11.00;;;4.85;;
27957;SDS011;15295;42.658;23.374;2022-07-22T00:28:39;8.73;;;4.78;;
27957;SDS011;15295;42.658;23.374;2022-07-22T00:31:05;7.20;;;4.45;;
27957;SDS011;15295;42.658;23.374;2022-07-22T00:36:33;14.40;;;4.68;;
27957;SDS011;15295;42.658;23.374;2022-07-22T00:38:59;6.07;;;4.32;;
27957;SDS011;15295;42.658;23.374;2022-07-22T00:41:27;9.02;;;4.70;;
27957;SDS011;15295;42.658;23.374;2022-07-22T00:44:00;8.23;;;4.60;;
27957;SDS011;15295;42.658;23.374;2022-07-22T00:48:55;8.20;;;4.90;;
27957;SDS011;15295;42.658;23.374;2022-07-22T00:53:51;10.27;;;4.55;;
27957;SDS011;15295;42.658;23.374;2022-07-22T00:56:18;10.48;;;4.55;;
27957;SDS011;15295;42.658;23.374;2022-07-22T00:58:44;10.32;;;4.90;;
27957;SDS011;15295;42.658;23.374;2022-07-22T01:01:12;7.93;;;4.38;;
27957;SDS011;15295;42.658;23.374;2022-07-22T01:03:38;9.68;;;4.65;;
27957;SDS011;15295;42.658;23.374;2022-07-22T01:06:04;8.50;;;4.28;;
27957;SDS011;15295;42.658;23.374;2022-07-22T01:08:29;9.27;;;4.50;;
27957;SDS011;15295;42.658;23.374;2022-07-22T01:11:19;6.82;;;4.72;;
27957;SDS011;15295;42.658;23.374;2022-07-22T01:13:46;10.90;;;4.90;;
27957;SDS011;15295;42.658;23.374;2022-07-22T01:16:28;7.57;;;4.40;;
27957;SDS011;15295;42.658;23.374;2022-07-22T01:18:54;11.80;;;4.88;;
27957;SDS011;15295;42.658;23.374;2022-07-22T01:21:21;10.43;;;4.80;;
27957;SDS011;15295;42.658;23.374;2022-07-22T01:23:47;13.48;;;5.05;;
27957;SDS011;15295;42.658;23.374;2022-07-22T01:26:13;10.93;;;4.75;;
27957;SDS011;15295;42.658;23.374;2022-07-22T01:28:40;7.85;;;4.80;;
27957;SDS011;15295;42.658;23.374;2022-07-22T01:31:06;9.65;;;4.50;;
27957;SDS011;15295;42.658;23.374;2022-07-22T01:33:32;9.82;;;4.90;;
27957;SDS011;15295;42.658;23.374;2022-07-22T01:35:58;9.15;;;5.20;;
27957;SDS011;15295;42.658;23.374;2022-07-22T01:38:24;10.68;;;5.03;;
27957;SDS011;15295;42.658;23.374;2022-07-22T01:40:50;12.50;;;5.40;;
27957;SDS011;15295;42.658;23.374;2022-07-22T01:43:15;11.13;;;5.40;;
27957;SDS011;15295;42.658;23.374;2022-07-22T01:45:43;13.10;;;5.60;;
27957;SDS011;15295;42.658;23.374;2022-07-22T01:48:09;12.85;;;4.82;;
27957;SDS011;15295;42.658;23.374;2022-07-22T01:50:35;9.38;;;4.90;;
27957;SDS011;15295;42.658;23.374;2022-07-22T01:53:02;11.23;;;5.03;;
27957;SDS011;15295;42.658;23.374;2022-07-22T01:55:27;9.48;;;4.82;;
27957;SDS011;15295;42.658;23.374;2022-07-22T01:57:52;7.90;;;5.38;;
27957;SDS011;15295;42.658;23.374;2022-07-22T02:00:18;9.35;;;5.13;;
27957;SDS011;15295;42.658;23.374;2022-07-22T02:02:50;9.43;;;5.30;;
27957;SDS011;15295;42.658;23.374;2022-07-22T02:05:15;8.70;;;5.15;;
27957;SDS011;15295;42.658;23.374;2022-07-22T02:07:41;8.40;;;5.15;;
27957;SDS011;15295;42.658;23.374;2022-07-22T02:10:07;10.35;;;5.30;;
27957;SDS011;15295;42.658;23.374;2022-07-22T02:12:34;10.95;;;5.28;;
27957;SDS011;15295;42.658;23.374;2022-07-22T02:14:59;14.55;;;5.68;;
27957;SDS011;15295;42.658;23.374;2022-07-22T02:17:25;7.97;;;4.82;;
27957;SDS011;15295;42.658;23.374;2022-07-22T02:19:50;9.38;;;5.00;;
27957;SDS011;15295;42.658;23.374;2022-07-22T02:22:18;8.25;;;4.97;;
27957;SDS011;15295;42.658;23.374;2022-07-22T02:24:44;8.93;;;4.78;;
27957;SDS011;15295;42.658;23.374;2022-07-22T02:27:09;9.77;;;4.90;;
27957;SDS011;15295;42.658;23.374;2022-07-22T02:29:36;11.13;;;5.78;;
27957;SDS011;15295;42.658;23.374;2022-07-22T02:32:03;8.02;;;4.78;;
27957;SDS011;15295;42.658;23.374;2022-07-22T02:34:28;9.82;;;5.03;;
27957;SDS011;15295;42.658;23.374;2022-07-22T02:36:54;11.95;;;5.40;;
27957;SDS011;15295;42.658;23.374;2022-07-22T02:39:19;10.27;;;5.38;;
27957;SDS011;15295;42.658;23.374;2022-07-22T02:41:45;9.00;;;5.35;;
27957;SDS011;15295;42.658;23.374;2022-07-22T02:46:45;11.63;;;5.55;;
27957;SDS011;15295;42.658;23.374;2022-07-22T02:49:10;10.50;;;5.40;;
27957;SDS011;15295;42.658;23.374;2022-07-22T02:51:36;9.05;;;5.95;;
27957;SDS011;15295;42.658;23.374;2022-07-22T02:54:01;13.10;;;5.72;;
27957;SDS011;15295;42.658;23.374;2022-07-22T02:56:27;8.65;;;5.97;;
27957;SDS011;15295;42.658;23.374;2022-07-22T02:58:52;11.10;;;6.18;;
27957;SDS011;15295;42.658;23.374;2022-07-22T03:01:19;11.32;;;5.95;;
27957;SDS011;15295;42.658;23.374;2022-07-22T03:03:45;13.15;;;6.07;;
27957;SDS011;15295;42.658;23.374;2022-07-22T03:06:11;9.32;;;5.68;;
27957;SDS011;15295;42.658;23.374;2022-07-22T03:08:38;12.98;;;5.65;;
27957;SDS011;15295;42.658;23.374;2022-07-22T03:11:15;14.35;;;5.90;;
27957;SDS011;15295;42.658;23.374;2022-07-22T03:13:56;9.35;;;5.47;;
27957;SDS011;15295;42.658;23.374;2022-07-22T03:16:21;12.60;;;6.00;;
27957;SDS011;15295;42.658;23.374;2022-07-22T03:18:58;8.88;;;6.00;;
27957;SDS011;15295;42.658;23.374;2022-07-22T03:21:24;12.18;;;5.57;;
27957;SDS011;15295;42.658;23.374;2022-07-22T03:23:50;11.75;;;5.70;;
27957;SDS011;15295;42.658;23.374;2022-07-22T03:26:22;14.10;;;6.30;;
27957;SDS011;15295;42.658;23.374;2022-07-22T03:28:48;10.38;;;5.80;;
27957;SDS011;15295;42.658;23.374;2022-07-22T03:31:25;17.05;;;6.38;;
27957;SDS011;15295;42.658;23.374;2022-07-22T03:33:52;10.68;;;7.07;;
27957;SDS011;15295;42.658;23.374;2022-07-22T03:36:17;13.55;;;6.18;;
27957;SDS011;15295;42.658;23.374;2022-07-22T03:38:42;16.45;;;6.75;;
27957;SDS011;15295;42.658;23.374;2022-07-22T03:41:08;12.20;;;6.18;;
27957;SDS011;15295;42.658;23.374;2022-07-22T03:43:33;12.48;;;6.70;;
27957;SDS011;15295;42.658;23.374;2022-07-22T03:45:59;17.17;;;6.60;;
27957;SDS011;15295;42.658;23.374;2022-07-22T03:48:25;13.00;;;6.20;;
27957;SDS011;15295;42.658;23.374;2022-07-22T03:50:51;15.90;;;6.65;;
27957;SDS011;15295;42.658;23.374;2022-07-22T03:53:16;12.57;;;7.07;;
27957;SDS011;15295;42.658;23.374;2022-07-22T03:55:42;16.30;;;6.80;;
27957;SDS011;15295;42.658;23.374;2022-07-22T03:58:07;12.50;;;6.30;;
27957;SDS011;15295;42.658;23.374;2022-07-22T04:00:33;13.45;;;6.72;;
27957;SDS011;15295;42.658;23.374;2022-07-22T04:02:59;12.75;;;6.53;;
27957;SDS011;15295;42.658;23.374;2022-07-22T04:05:25;17.90;;;6.85;;
27957;SDS011;15295;42.658;23.374;2022-07-22T04:07:50;12.45;;;7.32;;
27957;SDS011;15295;42.658;23.374;2022-07-22T04:10:16;13.73;;;6.55;;
27957;SDS011;15295;42.658;23.374;2022-07-22T04:12:41;14.07;;;7.18;;
27957;SDS011;15295;42.658;23.374;2022-07-22T04:15:07;17.38;;;7.88;;
27957;SDS011;15295;42.658;23.374;2022-07-22T04:17:33;14.93;;;7.35;;
27957;SDS011;15295;42.658;23.374;2022-07-22T04:19:59;12.23;;;7.00;;
27957;SDS011;15295;42.658;23.374;2022-07-22T04:22:26;14.07;;;7.50;;
27957;SDS011;15295;42.658;23.374;2022-07-22T04:24:52;12.75;;;7.00;;
27957;SDS011;15295;42.658;23.374;2022-07-22T04:27:18;16.55;;;7.85;;
27957;SDS011;15295;42.658;23.374;2022-07-22T04:29:43;13.35;;;8.18;;
27957;SDS011;15295;42.658;23.374;2022-07-22T04:32:08;16.48;;;8.68;;
27957;SDS011;15295;42.658;23.374;2022-07-22T04:34:34;16.85;;;8.35;;
27957;SDS011;15295;42.658;23.374;2022-07-22T04:36:59;13.73;;;8.25;;
27957;SDS011;15295;42.658;23.374;2022-07-22T04:39:25;20.00;;;9.27;;
27957;SDS011;15295;42.658;23.374;2022-07-22T04:41:50;14.52;;;8.18;;
27957;SDS011;15295;42.658;23.374;2022-07-22T04:44:18;20.42;;;10.10;;
27957;SDS011;15295;42.658;23.374;2022-07-22T04:46:43;23.05;;;9.48;;
27957;SDS011;15295;42.658;23.374;2022-07-22T04:49:09;11.90;;;6.15;;
27957;SDS011;15295;42.658;23.374;2022-07-22T04:51:34;9.82;;;6.90;;
27957;SDS011;15295;42.658;23.374;2022-07-22T04:56:30;13.45;;;6.55;;
27957;SDS011;15295;42.658;23.374;2022-07-22T04:58:55;13.75;;;7.15;;
27957;SDS011;15295;42.658;23.374;2022-07-22T05:01:21;14.00;;;8.00;;
27957;SDS011;15295;42.658;23.374;2022-07-22T05:03:46;15.45;;;7.90;;
27957;SDS011;15295;42.658;23.374;2022-07-22T05:06:12;22.45;;;10.25;;
27957;SDS011;15295;42.658;23.374;2022-07-22T05:08:38;19.00;;;9.18;;
27957;SDS011;15295;42.658;23.374;2022-07-22T05:11:03;18.15;;;9.35;;
27957;SDS011;15295;42.658;23.374;2022-07-22T05:13:29;35.72;;;10.15;;
27957;SDS011;15295;42.658;23.374;2022-07-22T05:15:55;18.83;;;9.98;;
27957;SDS011;15295;42.658;23.374;2022-07-22T05:18:21;19.00;;;10.25;;
27957;SDS011;15295;42.658;23.374;2022-07-22T05:20:46;19.00;;;9.63;;
27957;SDS011;15295;42.658;23.374;2022-07-22T05:23:12;19.52;;;9.10;;
27957;SDS011;15295;42.658;23.374;2022-07-22T05:25:37;16.83;;;10.05;;
27957;SDS011;15295;42.658;23.374;2022-07-22T05:28:03;27.13;;;14.95;;
27957;SDS011;15295;42.658;23.374;2022-07-22T05:30:28;23.20;;;10.20;;
27957;SDS011;15295;42.658;23.374;2022-07-22T05:32:54;18.63;;;9.43;;
27957;SDS011;15295;42.658;23.374;2022-07-22T05:35:20;17.30;;;9.40;;
27957;SDS011;15295;42.658;23.374;2022-07-22T05:37:46;13.18;;;8.15;;
27957;SDS011;15295;42.658;23.374;2022-07-22T05:40:12;13.13;;;7.80;;
27957;SDS011;15295;42.658;23.374;2022-07-22T05:42:38;10.93;;;7.70;;
27957;SDS011;15295;42.658;23.374;2022-07-22T05:47:58;12.25;;;7.53;;
27957;SDS011;15295;42.658;23.374;2022-07-22T05:50:24;21.38;;;8.98;;
27957;SDS011;15295;42.658;23.374;2022-07-22T05:53:03;13.32;;;7.93;;
27957;SDS011;15295;42.658;23.374;2022-07-22T05:55:37;17.00;;;8.40;;
27957;SDS011;15295;42.658;23.374;2022-07-22T05:58:02;18.35;;;9.02;;
27957;SDS011;15295;42.658;23.374;2022-07-22T06:00:28;18.35;;;8.38;;
27957;SDS011;15295;42.658;23.374;2022-07-22T06:02:53;18.08;;;8.73;;
27957;SDS011;15295;42.658;23.374;2022-07-22T06:07:47;16.30;;;8.10;;
27957;SDS011;15295;42.658;23.374;2022-07-22T06:10:13;20.45;;;8.40;;
27957;SDS011;15295;42.658;23.374;2022-07-22T06:12:38;19.77;;;7.82;;
27957;SDS011;15295;42.658;23.374;2022-07-22T06:15:10;17.45;;;8.65;;
27957;SDS011;15295;42.658;23.374;2022-07-22T06:17:36;20.85;;;7.90;;
27957;SDS011;15295;42.658;23.374;2022-07-22T06:20:02;14.63;;;7.50;;
27957;SDS011;15295;42.658;23.374;2022-07-22T06:22:28;19.95;;;8.63;;
27957;SDS011;15295;42.658;23.374;2022-07-22T06:24:54;17.20;;;8.00;;
27957;SDS011;15295;42.658;23.374;2022-07-22T06:27:21;20.67;;;7.50;;
27957;SDS011;15295;42.658;23.374;2022-07-22T06:29:58;20.60;;;7.70;;
27957;SDS011;15295;42.658;23.374;2022-07-22T06:32:46;19.20;;;8.88;;
27957;SDS011;15295;42.658;23.374;2022-07-22T06:35:11;18.10;;;8.65;;
27957;SDS011;15295;42.658;23.374;2022-07-22T06:37:37;22.38;;;9.40;;
27957;SDS011;15295;42.658;23.374;2022-07-22T06:40:03;19.33;;;9.23;;
27957;SDS011;15295;42.658;23.374;2022-07-22T06:42:29;33.58;;;20.08;;
27957;SDS011;15295;42.658;23.374;2022-07-22T06:44:55;32.55;;;14.80;;
27957;SDS011;15295;42.658;23.374;2022-07-22T06:50:13;25.88;;;9.60;;
27957;SDS011;15295;42.658;23.374;2022-07-22T06:52:39;22.98;;;9.90;;
27957;SDS011;15295;42.658;23.374;2022-07-22T06:55:06;23.02;;;8.98;;
27957;SDS011;15295;42.658;23.374;2022-07-22T06:57:41;19.67;;;8.48;;
27957;SDS011;15295;42.658;23.374;2022-07-22T07:00:06;18.77;;;7.83;;
27957;SDS011;15295;42.658;23.374;2022-07-22T07:02:33;16.73;;;8.20;;
27957;SDS011;15295;42.658;23.374;2022-07-22T07:04:59;25.63;;;10.73;;
27957;SDS011;15295;42.658;23.374;2022-07-22T07:07:35;21.25;;;12.40;;
27957;SDS011;15295;42.658;23.374;2022-07-22T07:10:17;22.50;;;8.68;;
27957;SDS011;15295;42.658;23.374;2022-07-22T07:12:48;24.67;;;8.93;;
27957;SDS011;15295;42.658;23.374;2022-07-22T07:15:13;30.25;;;12.40;;
27957;SDS011;15295;42.658;23.374;2022-07-22T07:17:47;16.45;;;8.25;;
27957;SDS011;15295;42.658;23.374;2022-07-22T07:20:13;22.00;;;9.18;;
27957;SDS011;15295;42.658;23.374;2022-07-22T07:22:38;19.83;;;6.38;;
27957;SDS011;15295;42.658;23.374;2022-07-22T07:25:04;23.15;;;8.65;;
27957;SDS011;15295;42.658;23.374;2022-07-22T07:27:49;16.60;;;6.72;;
27957;SDS011;15295;42.658;23.374;2022-07-22T07:32:41;15.68;;;8.07;;
27957;SDS011;15295;42.658;23.374;2022-07-22T07:35:06;33.72;;;20.60;;
27957;SDS011;15295;42.658;23.374;2022-07-22T07:37:32;24.15;;;13.82;;
27957;SDS011;15295;42.658;23.374;2022-07-22T07:39:58;25.38;;;6.72;;
27957;SDS011;15295;42.658;23.374;2022-07-22T07:42:24;11.57;;;6.63;;
27957;SDS011;15295;42.658;23.374;2022-07-22T07:44:50;10.93;;;6.15;;
27957;SDS011;15295;42.658;23.374;2022-07-22T07:47:19;13.10;;;6.13;;
27957;SDS011;15295;42.658;23.374;2022-07-22T07:49:46;12.48;;;6.72;;
27957;SDS011;15295;42.658;23.374;2022-07-22T07:52:14;17.33;;;6.30;;
27957;SDS011;15295;42.658;23.374;2022-07-22T07:54:40;9.75;;;5.72;;
27957;SDS011;15295;42.658;23.374;2022-07-22T07:57:10;11.20;;;5.38;;
27957;SDS011;15295;42.658;23.374;2022-07-22T07:59:40;15.18;;;6.32;;
27957;SDS011;15295;42.658;23.374;2022-07-22T08:02:05;14.35;;;6.63;;
27957;SDS011;15295;42.658;23.374;2022-07-22T08:04:31;11.35;;;6.43;;
27957;SDS011;15295;42.658;23.374;2022-07-22T08:06:57;15.98;;;5.43;;
27957;SDS011;15295;42.658;23.374;2022-07-22T08:09:23;18.60;;;6.70;;
27957;SDS011;15295;42.658;23.374;2022-07-22T08:11:49;9.02;;;5.43;;
27957;SDS011;15295;42.658;23.374;2022-07-22T08:14:15;10.77;;;5.55;;
27957;SDS011;15295;42.658;23.374;2022-07-22T08:16:40;20.40;;;9.05;;
27957;SDS011;15295;42.658;23.374;2022-07-22T08:19:06;14.25;;;6.57;;
27957;SDS011;15295;42.658;23.374;2022-07-22T08:21:32;10.77;;;5.30;;
27957;SDS011;15295;42.658;23.374;2022-07-22T08:23:57;18.10;;;8.55;;
27957;SDS011;15295;42.658;23.374;2022-07-22T08:26:23;14.15;;;7.35;;
27957;SDS011;15295;42.658;23.374;2022-07-22T08:28:48;15.73;;;8.63;;
27957;SDS011;15295;42.658;23.374;2022-07-22T08:31:14;21.25;;;7.90;;
27957;SDS011;15295;42.658;23.374;2022-07-22T08:33:39;18.48;;;11.48;;
27957;SDS011;15295;42.658;23.374;2022-07-22T08:36:05;11.30;;;6.43;;
27957;SDS011;15295;42.658;23.374;2022-07-22T08:38:32;10.88;;;5.00;;
27957;SDS011;15295;42.658;23.374;2022-07-22T08:40:58;12.80;;;5.90;;
27957;SDS011;15295;42.658;23.374;2022-07-22T08:43:33;11.55;;;4.75;;
27957;SDS011;15295;42.658;23.374;2022-07-22T08:46:01;6.65;;;4.55;;
27957;SDS011;15295;42.658;23.374;2022-07-22T08:48:27;7.68;;;4.75;;
27957;SDS011;15295;42.658;23.374;2022-07-22T08:50:52;9.75;;;4.75;;
27957;SDS011;15295;42.658;23.374;2022-07-22T08:53:18;9.05;;;4.85;;
27957;SDS011;15295;42.658;23.374;2022-07-22T08:55:44;9.52;;;4.40;;
27957;SDS011;15295;42.658;23.374;2022-07-22T08:58:12;7.45;;;4.60;;
27957;SDS011;15295;42.658;23.374;2022-07-22T09:00:44;7.15;;;4.20;;
27957;SDS011;15295;42.658;23.374;2022-07-22T09:03:23;12.35;;;4.43;;
27957;SDS011;15295;42.658;23.374;2022-07-22T09:05:52;10.77;;;5.45;;
27957;SDS011;15295;42.658;23.374;2022-07-22T09:08:20;10.80;;;5.05;;
27957;SDS011;15295;42.658;23.374;2022-07-22T09:10:46;8.82;;;4.43;;
27957;SDS011;15295;42.658;23.374;2022-07-22T09:13:13;10.00;;;5.85;;
27957;SDS011;15295;42.658;23.374;2022-07-22T09:15:50;8.85;;;5.28;;
27957;SDS011;15295;42.658;23.374;2022-07-22T09:18:19;18.75;;;6.28;;
27957;SDS011;15295;42.658;23.374;2022-07-22T09:20:44;9.85;;;5.13;;
27957;SDS011;15295;42.658;23.374;2022-07-22T09:23:14;7.55;;;5.05;;
27957;SDS011;15295;42.658;23.374;2022-07-22T09:25:42;9.15;;;4.80;;
27957;SDS011;15295;42.658;23.374;2022-07-22T09:28:13;9.18;;;5.07;;
27957;SDS011;15295;42.658;23.374;2022-07-22T09:30:45;13.50;;;6.13;;
27957;SDS011;15295;42.658;23.374;2022-07-22T09:33:15;15.13;;;5.40;;
27957;SDS011;15295;42.658;23.374;2022-07-22T09:35:41;9.70;;;5.60;;
27957;SDS011;15295;42.658;23.374;2022-07-22T09:38:10;9.88;;;6.80;;
27957;SDS011;15295;42.658;23.374;2022-07-22T09:40:37;12.10;;;6.07;;
27957;SDS011;15295;42.658;23.374;2022-07-22T09:43:09;6.90;;;4.57;;
27957;SDS011;15295;42.658;23.374;2022-07-22T09:45:53;12.48;;;5.28;;
27957;SDS011;15295;42.658;23.374;2022-07-22T09:48:22;12.80;;;4.90;;
27957;SDS011;15295;42.658;23.374;2022-07-22T09:50:50;7.28;;;4.43;;
27957;SDS011;15295;42.658;23.374;2022-07-22T09:53:17;12.52;;;5.90;;
27957;SDS011;15295;42.658;23.374;2022-07-22T09:55:44;6.70;;;4.57;;
27957;SDS011;15295;42.658;23.374;2022-07-22T09:58:28;7.95;;;4.60;;
27957;SDS011;15295;42.658;23.374;2022-07-22T10:00:54;10.02;;;4.60;;
27957;SDS011;15295;42.658;23.374;2022-07-22T10:03:26;10.43;;;4.60;;
27957;SDS011;15295;42.658;23.374;2022-07-22T10:05:54;14.55;;;6.70;;
27957;SDS011;15295;42.658;23.374;2022-07-22T10:11:12;7.75;;;4.80;;
27957;SDS011;15295;42.658;23.374;2022-07-22T10:13:37;12.95;;;5.57;;
27957;SDS011;15295;42.658;23.374;2022-07-22T10:16:04;8.75;;;4.30;;
27957;SDS011;15295;42.658;23.374;2022-07-22T10:18:32;9.77;;;4.60;;
27957;SDS011;15295;42.658;23.374;2022-07-22T10:21:05;11.55;;;4.72;;
27957;SDS011;15295;42.658;23.374;2022-07-22T10:23:32;18.88;;;10.10;;
27957;SDS011;15295;42.658;23.374;2022-07-22T10:25:59;10.45;;;5.80;;
27957;SDS011;15295;42.658;23.374;2022-07-22T10:28:36;9.13;;;5.18;;
27957;SDS011;15295;42.658;23.374;2022-07-22T10:33:57;11.75;;;8.55;;
27957;SDS011;15295;42.658;23.374;2022-07-22T10:36:39;8.52;;;4.60;;
27957;SDS011;15295;42.658;23.374;2022-07-22T10:39:16;8.15;;;4.65;;
27957;SDS011;15295;42.658;23.374;2022-07-22T10:41:43;9.68;;;4.45;;
27957;SDS011;15295;42.658;23.374;2022-07-22T10:44:11;12.63;;;5.07;;
27957;SDS011;15295;42.658;23.374;2022-07-22T10:47:10;9.05;;;4.82;;
27957;SDS011;15295;42.658;23.374;2022-07-22T10:49:29;5.93;;;4.55;;
27957;SDS011;15295;42.658;23.374;2022-07-22T10:57:42;8.40;;;6.22;;
27957;SDS011;15295;42.658;23.374;2022-07-22T11:00:14;9.63;;;5.90;;
27957;SDS011;15295;42.658;23.374;2022-07-22T11:02:40;12.45;;;5.32;;
27957;SDS011;15295;42.658;23.374;2022-07-22T11:05:06;10.10;;;5.28;;
27957;SDS011;15295;42.658;23.374;2022-07-22T11:07:33;11.15;;;4.78;;
27957;SDS011;15295;42.658;23.374;2022-07-22T11:10:12;9.23;;;6.13;;
27957;SDS011;15295;42.658;23.374;2022-07-22T11:12:40;11.77;;;5.25;;
27957;SDS011;15295;42.658;23.374;2022-07-22T11:15:06;10.25;;;5.00;;
27957;SDS011;15295;42.658;23.374;2022-07-22T11:17:32;7.68;;;4.55;;
27957;SDS011;15295;42.658;23.374;2022-07-22T11:20:17;8.52;;;5.40;;
27957;SDS011;15295;42.658;23.374;2022-07-22T11:22:43;11.50;;;5.28;;
27957;SDS011;15295;42.658;23.374;2022-07-22T11:25:12;9.55;;;5.13;;
27957;SDS011;15295;42.658;23.374;2022-07-22T11:27:38;8.77;;;5.20;;
27957;SDS011;15295;42.658;23.374;2022-07-22T11:30:04;9.00;;;5.32;;
27957;SDS011;15295;42.658;23.374;2022-07-22T11:32:31;7.28;;;5.00;;
27957;SDS011;15295;42.658;23.374;2022-07-22T11:34:58;10.63;;;5.18;;
27957;SDS011;15295;42.658;23.374;2022-07-22T11:37:24;9.27;;;5.45;;
27957;SDS011;15295;42.658;23.374;2022-07-22T11:42:59;9.23;;;5.03;;
27957;SDS011;15295;42.658;23.374;2022-07-22T11:45:26;9.43;;;4.43;;
27957;SDS011;15295;42.658;23.374;2022-07-22T11:47:51;10.55;;;5.32;;
27957;SDS011;15295;42.658;23.374;2022-07-22T11:50:30;9.35;;;4.45;;
27957;SDS011;15295;42.658;23.374;2022-07-22T11:52:56;13.00;;;7.03;;
27957;SDS011;15295;42.658;23.374;2022-07-22T11:55:22;11.18;;;7.97;;
27957;SDS011;15295;42.658;23.374;2022-07-22T11:57:48;9.55;;;5.65;;
27957;SDS011;15295;42.658;23.374;2022-07-22T12:00:14;6.47;;;4.78;;
27957;SDS011;15295;42.658;23.374;2022-07-22T12:02:42;7.72;;;5.13;;
27957;SDS011;15295;42.658;23.374;2022-07-22T12:05:11;14.05;;;5.32;;
27957;SDS011;15295;42.658;23.374;2022-07-22T12:08:16;9.10;;;4.95;;
27957;SDS011;15295;42.658;23.374;2022-07-22T12:10:47;10.70;;;5.05;;
27957;SDS011;15295;42.658;23.374;2022-07-22T12:13:13;8.15;;;5.70;;
27957;SDS011;15295;42.658;23.374;2022-07-22T12:15:39;12.45;;;5.18;;
27957;SDS011;15295;42.658;23.374;2022-07-22T12:18:14;9.13;;;4.60;;
27957;SDS011;15295;42.658;23.374;2022-07-22T12:20:45;10.07;;;7.10;;
27957;SDS011;15295;42.658;23.374;2022-07-22T12:23:12;9.10;;;5.13;;
27957;SDS011;15295;42.658;23.374;2022-07-22T12:25:57;11.95;;;5.32;;
27957;SDS011;15295;42.658;23.374;2022-07-22T12:28:24;13.27;;;5.35;;
27957;SDS011;15295;42.658;23.374;2022-07-22T12:30:56;10.80;;;5.18;;
27957;SDS011;15295;42.658;23.374;2022-07-22T12:33:22;13.77;;;5.28;;
27957;SDS011;15295;42.658;23.374;2022-07-22T12:38:44;6.50;;;4.25;;
27957;SDS011;15295;42.658;23.374;2022-07-22T12:41:23;14.80;;;5.07;;
27957;SDS011;15295;42.658;23.374;2022-07-22T12:43:54;9.32;;;4.82;;
27957;SDS011;15295;42.658;23.374;2022-07-22T12:46:20;9.68;;;4.10;;
27957;SDS011;15295;42.658;23.374;2022-07-22T12:48:52;10.52;;;4.20;;
27957;SDS011;15295;42.658;23.374;2022-07-22T12:51:30;11.15;;;4.13;;
27957;SDS011;15295;42.658;23.374;2022-07-22T12:53:56;11.68;;;4.60;;
27957;SDS011;15295;42.658;23.374;2022-07-22T12:56:21;10.73;;;4.10;;
27957;SDS011;15295;42.658;23.374;2022-07-22T12:58:47;11.77;;;4.80;;
27957;SDS011;15295;42.658;23.374;2022-07-22T13:01:13;7.53;;;4.57;;
27957;SDS011;15295;42.658;23.374;2022-07-22T13:03:39;7.35;;;4.15;;
27957;SDS011;15295;42.658;23.374;2022-07-22T13:06:04;17.73;;;4.32;;
27957;SDS011;15295;42.658;23.374;2022-07-22T13:08:31;7.90;;;4.65;;
27957;SDS011;15295;42.658;23.374;2022-07-22T13:10:57;10.05;;;4.30;;
27957;SDS011;15295;42.658;23.374;2022-07-22T13:13:23;8.90;;;4.38;;
27957;SDS011;15295;42.658;23.374;2022-07-22T13:15:50;9.10;;;4.53;;
27957;SDS011;15295;42.658;23.374;2022-07-22T13:18:16;8.90;;;4.05;;
27957;SDS011;15295;42.658;23.374;2022-07-22T13:23:29;6.88;;;4.28;;
27957;SDS011;15295;42.658;23.374;2022-07-22T13:25:54;7.70;;;4.00;;
27957;SDS011;15295;42.658;23.374;2022-07-22T13:28:26;11.02;;;4.20;;
27957;SDS011;15295;42.658;23.374;2022-07-22T13:31:08;6.80;;;4.10;;
27957;SDS011;15295;42.658;23.374;2022-07-22T13:33:34;11.63;;;4.50;;
27957;SDS011;15295;42.658;23.374;2022-07-22T13:36:00;5.68;;;4.35;;
27957;SDS011;15295;42.658;23.374;2022-07-22T13:38:25;8.07;;;4.35;;
27957;SDS011;15295;42.658;23.374;2022-07-22T13:40:51;13.38;;;4.22;;
27957;SDS011;15295;42.658;23.374;2022-07-22T13:43:20;9.55;;;3.90;;
27957;SDS011;15295;42.658;23.374;2022-07-22T13:45:50;11.90;;;4.50;;
27957;SDS011;15295;42.658;23.374;2022-07-22T13:48:18;6.15;;;4.20;;
27957;SDS011;15295;42.658;23.374;2022-07-22T13:50:45;7.72;;;4.25;;
27957;SDS011;15295;42.658;23.374;2022-07-22T13:53:11;9.45;;;4.05;;
27957;SDS011;15295;42.658;23.374;2022-07-22T13:55:42;7.45;;;4.20;;
27957;SDS011;15295;42.658;23.374;2022-07-22T13:58:11;15.32;;;4.43;;
27957;SDS011;15295;42.658;23.374;2022-07-22T14:00:49;9.98;;;4.20;;
27957;SDS011;15295;42.658;23.374;2022-07-22T14:03:14;9.10;;;4.47;;
27957;SDS011;15295;42.658;23.374;2022-07-22T14:05:39;9.73;;;4.53;;
27957;SDS011;15295;42.658;23.374;2022-07-22T14:08:05;6.57;;;4.28;;
27957;SDS011;15295;42.658;23.374;2022-07-22T14:10:45;10.98;;;4.25;;
27957;SDS011;15295;42.658;23.374;2022-07-22T14:13:11;9.02;;;4.50;;
27957;SDS011;15295;42.658;23.374;2022-07-22T14:15:36;8.50;;;4.00;;
27957;SDS011;15295;42.658;23.374;2022-07-22T14:18:02;8.70;;;4.53;;
27957;SDS011;15295;42.658;23.374;2022-07-22T14:20:36;13.82;;;4.43;;
27957;SDS011;15295;42.658;23.374;2022-07-22T14:23:14;10.50;;;4.85;;
27957;SDS011;15295;42.658;23.374;2022-07-22T14:25:41;6.88;;;4.15;;
27957;SDS011;15295;42.658;23.374;2022-07-22T14:28:08;12.10;;;4.38;;
27957;SDS011;15295;42.658;23.374;2022-07-22T14:30:33;10.43;;;3.80;;
27957;SDS011;15295;42.658;23.374;2022-07-22T14:33:03;8.13;;;4.13;;
27957;SDS011;15295;42.658;23.374;2022-07-22T14:35:28;10.65;;;4.40;;
27957;SDS011;15295;42.658;23.374;2022-07-22T14:37:54;14.13;;;4.43;;
27957;SDS011;15295;42.658;23.374;2022-07-22T14:40:19;7.13;;;4.13;;
27957;SDS011;15295;42.658;23.374;2022-07-22T14:45:31;8.50;;;3.83;;
27957;SDS011;15295;42.658;23.374;2022-07-22T14:47:57;8.13;;;4.15;;
27957;SDS011;15295;42.658;23.374;2022-07-22T14:50:22;8.55;;;4.47;;
27957;SDS011;15295;42.658;23.374;2022-07-22T14:52:48;7.40;;;4.00;;
27957;SDS011;15295;42.658;23.374;2022-07-22T14:55:15;9.73;;;3.80;;
27957;SDS011;15295;42.658;23.374;2022-07-22T14:57:40;10.70;;;3.72;;
27957;SDS011;15295;42.658;23.374;2022-07-22T15:00:06;8.98;;;4.10;;
27957;SDS011;15295;42.658;23.374;2022-07-22T15:02:33;8.05;;;3.95;;
27957;SDS011;15295;42.658;23.374;2022-07-22T15:04:58;6.68;;;3.90;;
27957;SDS011;15295;42.658;23.374;2022-07-22T15:07:23;9.95;;;3.92;;
27957;SDS011;15295;42.658;23.374;2022-07-22T15:09:49;9.93;;;4.18;;
27957;SDS011;15295;42.658;23.374;2022-07-22T15:12:20;6.25;;;4.20;;
27957;SDS011;15295;42.658;23.374;2022-07-22T15:14:46;9.65;;;4.20;;
27957;SDS011;15295;42.658;23.374;2022-07-22T15:17:11;7.25;;;3.78;;
27957;SDS011;15295;42.658;23.374;2022-07-22T15:19:37;13.10;;;4.15;;